Current | Forecast
Updated: 4:00 PM CEST on May 25, 2017
Observed at Kosice, Slovakia
Temperature 18°C
Humidity 59%
Dew Point 10°C
Wind North at 28 km/h
Pressure 1016 hPa (Steady)
Conditions Scattered Clouds
Visibility 10.0 kilometers
UV 4 out of 16
Clouds Scattered Clouds (SCT) : 1066 m
Yesterday's Maximum 22°C
Yesterday's Minimum 12°C approx.
Yesterday's Heating Degree Days 2 approx.
Sunrise4:37 AM CEST
Sunset8:18 PM CEST
Moon Rise4:45 AM CEST
Moon Set7:41 PM CEST
Moon PhaseMoon Phase
Waning Crescent
Raw METARMETAR LZKZ 251400Z 01015KT 9999 SCT035 18/10 Q1016 NOSIG


Monday
. High: 66° F.
Tuesday
. High: 60° F.
Wednesday
. High: 71° F.
Thursday
. High: 80° F.
Friday
. High: 69° F.
Saturday
. High: 66° F.
Sunday
. High: 73° F.
Monday
. High: 66° F.

Units: English | Metric

Find the Weather for any City, State or Zipcode, or Country:

U.S. State List | Severe Weather | Tropical Storms | Ski Conditions
United States | Canada | Central America | South America | Asia | Europe | Australia | Africa | Islands

Weather Underground

© Copyright 2017
The Weather Company, LLC